Estación de Contra Coronel

Ultimos registro cada 15 minutos 43
Estación Fecha / Hora Temperatura Humedad Lluvia Velocidad Dirección Radiación Presion
43 Contra Coronel 01-09-2026 10:30 8,9 92,2 0 2 11 113,1 1015,2
42 Contra Coronel 01-09-2026 10:15 8,9 92,4 0 1 15 145,6 1015,2
41 Contra Coronel 01-09-2026 10:00 8,6 94 0 1,3 6 149,4 1015,4
40 Contra Coronel 01-09-2026 09:45 8,3 95,5 0 1 31 134,4 1015,3
39 Contra Coronel 01-09-2026 09:30 8,1 96 0 1 11 90,6 1015,5
38 Contra Coronel 01-09-2026 09:15 8,1 96,4 0 1 25 99,4 1015,4
37 Contra Coronel 01-09-2026 09:00 7,8 97,1 0 0,3 22 89,4 1015,3
36 Contra Coronel 01-09-2026 08:45 7,4 97,9 0 0,3 358 90,6 1015,5
35 Contra Coronel 01-09-2026 08:30 7,2 98,4 0 0,3 15 28,1 1015,4
34 Contra Coronel 01-09-2026 08:15 7 98,7 0 0 1 31,9 1015,3
33 Contra Coronel 01-09-2026 08:00 6,9 98,9 0 0,7 6 16,9 1015,1
32 Contra Coronel 01-09-2026 07:45 6,8 99 0 0 4 14,4 1015,1
31 Contra Coronel 01-09-2026 07:30 6,6 98,9 0 0 358 1,9 1015,2
30 Contra Coronel 01-09-2026 07:15 6,6 98,7 0 0 358 0,6 1015,1
29 Contra Coronel 01-09-2026 07:00 6,7 98,7 0 0 358 0,6 1015,3
28 Contra Coronel 01-09-2026 06:45 6,6 98,7 0 0 358 0,6 1015,5
27 Contra Coronel 01-09-2026 06:30 6,7 98,5 0 0,3 15 0,6 1015,3
26 Contra Coronel 01-09-2026 06:15 6,7 98,4 0 0 38 0,6 1015,3
25 Contra Coronel 01-09-2026 06:00 6,7 98,3 0 0 358 0,6 1015,5
24 Contra Coronel 01-09-2026 05:45 6,7 98,2 0 0 358 0,6 1015,6
23 Contra Coronel 01-09-2026 05:30 6,6 98,1 0 0 358 0,6 1015,5
22 Contra Coronel 01-09-2026 05:15 6,7 97,8 0 0 358 0,6 1015,5
21 Contra Coronel 01-09-2026 05:00 6,9 97,2 0 0 358 0,6 1015,5
20 Contra Coronel 01-09-2026 04:45 6,9 96,9 0 0 345 0,6 1015,6
19 Contra Coronel 01-09-2026 04:30 7 96,8 0 0,3 357 0,6 1015,3
18 Contra Coronel 01-09-2026 04:15 7,1 96,3 0 0,3 4 0,6 1015,5
17 Contra Coronel 01-09-2026 04:00 7,1 96,1 0 0,7 4 0,6 1015,8
16 Contra Coronel 01-09-2026 03:45 7,2 95,5 0 0 4 0,6 1016,1
15 Contra Coronel 01-09-2026 03:30 7,3 95,1 0 0,3 18 0,6 1016
14 Contra Coronel 01-09-2026 03:15 7,4 94,7 0 0,7 17 0,6 1016,3
13 Contra Coronel 01-09-2026 03:00 7,4 95 0 1 32 0,6 1016,2
12 Contra Coronel 01-09-2026 02:45 7,5 95,6 0 1,3 27 0,6 1016,5
11 Contra Coronel 01-09-2026 02:30 7,5 95,9 0 1 27 0,6 1016,6
10 Contra Coronel 01-09-2026 02:15 7,6 96,3 0 0,7 13 0,6 1016,8
9 Contra Coronel 01-09-2026 02:00 7,7 96,2 0 1 10 0,6 1017
8 Contra Coronel 01-09-2026 01:45 7,6 96,7 0 1 25 0,6 1016,9
7 Contra Coronel 01-09-2026 01:30 7,6 96,7 0 1 28 0,6 1017,1
6 Contra Coronel 01-09-2026 01:15 7,7 96 0 1 25 0,6 1017,1
5 Contra Coronel 01-09-2026 01:00 7,7 95,5 0 0,7 14 0,6 1017,3
4 Contra Coronel 01-09-2026 00:45 7,8 94,9 0 0,3 10 0,6 1017,5
3 Contra Coronel 01-09-2026 00:30 7,9 93,6 0 1 13 0,6 1017,7
2 Contra Coronel 01-09-2026 00:15 8,1 92,8 0 1,7 21 0,6 1017,7
1 Contra Coronel 01-09-2026 00:00 8,2 91,9 0 1,3 13 0,6 1018,1